Česky Dansk Deutsch English Español Suomi Français Magyar Italiano Nederlands norsk Polski Português svenska Türkçe

 

Het Weer

Le Touquet (Frankrijk)

00:00, 21 augusti 2016 (GMT)

NWNNE
WE
SWSSE
Home            
Le Touquet Abbeville Lydd Airport Manston, South East Manston Koksijde Vittefleur / St. Vale Lille Cambrai Oostende Airport Beauvais Rouen Southend-On-Sea Saint-Quentin Shoreham Airport Biggin Hill London / Gatwick Airport Creil Fafb Munte Chievres La Heve London Weather Centre Evreux

Om een weerknop op uw website of weblog te plaatsen, copieer onderstaande code en plak die in uw pagina. In het eerste vakje staat HTML-code, in het tweede vakje UBB-code.


Add to Google

Details

Wind speed:5 bf, 16 kn, 8.2 m/s, 18.4 miles/h, 29.6 km/h
Wind direction:WSW, 240°
Generella sikten:Över 10000 m, 10 km, 32800 ft, 6.2 miles
Clouds:Brutna at 2300 ft, 701 m
Mulen at 3200 ft, 975 m
Temperaturen:17°C, 63°F
Daggpunkt:13°C, 55°F
Lufttrycket:1013 hPa, 759.8 mmHg, 29.91 inHg, 1.000 atm
Relativa fuktigheten:77.3 %
METAR:LFAT 210000Z AUTO 24016KT 9999 BKN023 OVC032 TCU 17/13 Q1013

Snelkoppelingen

Actuele weersinformatie van de hele wereld. Voeg locaties toe met het plus (+) symbool. Deze snelkoppelingen kunnen worden toegevoegd aan Google.

Lid van de Technetium groep

website free tracking
StatCounter NetStat W3C Validator

01-10-2022 11:47:30
astro.technetium.be money.technetium.be phote.technetium.be tafeltennistafel.technetium.be www.ligfiets.net